Nearby METAR Reports

 

EGXV - Leconfield (aut), United Kingdom
Distance from station: NW 6mi, 9km
Updated: Thu, 27-Apr-2017 2:50pm BST
Mostly cloudy
Mostly cloudy
 Wind from N
Wind: N 5 mph , 7 km/h
Temperature: 11°C
Dew Point: 6°C
Humidity: 72%
Barometer: 1015 hPa
Clouds: Mostly cloudy
Visibility: 6 miles , 10 km
Cloud details: Few Clouds 792 m
Mostly cloudy 1524 m
2017/04/27 13:50 EGXV 271350Z AUTO 36004KT 9999 FEW026/// BKN050/// 11/06 Q1015 RERA
EGNJ - Humberside, United Kingdom
Distance from station: S 16mi, 26km
Updated: Thu, 27-Apr-2017 3:50pm BST
Partly cloudy
Partly cloudy
 Wind from NW
Wind: NW 10 mph , 17 km/h
Temperature: 11°C
Dew Point: 6°C
Humidity: 72%
Barometer: 1015 hPa
Clouds: Partly cloudy
Visibility: 6 miles , 10 km
Cloud details: Partly cloudy 762 m
Partly cloudy 1372 m
2017/04/27 14:50 EGNJ 271450Z 32009KT 9999 SCT025 SCT045 11/06 Q1015
EGXS - Donna Nook Raf, United Kingdom
Distance from station: SE 30mi, 49km
Updated: Thu, 27-Apr-2017 2:50pm BST
Mostly cloudy
Mostly cloudy
 Wind from SW
Wind: SW 8 mph , 13 km/h
Temperature: 10°C
Wind Chill: 8°C
Dew Point: 7°C
Humidity: 82%
Barometer: 1015 hPa
Clouds: Mostly cloudy
Visibility: 6 miles , 10 km
Cloud details: Few Clouds 457 m
Mostly cloudy 1829 m
2017/04/27 13:50 EGXS 271350Z AUTO 23007KT 9999 // FEW015/// BKN060/// 10/07 Q1015
 
EGCN - Doncaster Sheffi, United Kingdom
Distance from station: SW 35mi, 56km
Updated: Thu, 27-Apr-2017 3:50pm BST
Nearby showers, Mostly cloudy
Nearby showers, Mostly cloudy
 Wind from NW
Wind: NW 12 mph , 19 km/h
Temperature: 13°C
Dew Point: 7°C
Humidity: 67%
Barometer: 1016 hPa
Summary: Nearby Showers
Clouds: Mostly cloudy
Visibility: 6 miles , 10 km
Cloud details: Few Clouds 853 m
Partly cloudy 1036 m
Mostly cloudy 1219 m
2017/04/27 14:50 EGCN 271450Z 31010KT 270V340 9999 VCSH FEW028 SCT034 BKN040 13/07 Q1016
EGXP - Scampton Raf, United Kingdom
Distance from station: SSW 36mi, 58km
Updated: Thu, 27-Apr-2017 2:50pm BST
Rain showers, Mostly cloudy
Rain showers, Mostly cloudy
 Wind from N
Wind: N 8 mph , 13 km/h
Temperature: 8°C
Wind Chill: 6°C
Dew Point: 6°C
Humidity: 87%
Barometer: 1015 hPa
Summary: Rain Showers
Clouds: Mostly cloudy
Visibility: 3 miles , 5 km
Cloud details: Partly cloudy 762 m
Mostly cloudy 945 m
Mostly cloudy 1524 m
2017/04/27 13:50 EGXP 271350Z 35007KT 5000 SHRA SCT025 BKN031 BKN050 08/06 Q1015 WHT
EGXU - Linton-On-Ouse R, United Kingdom
Distance from station: WNW 40mi, 65km
Updated: Thu, 27-Apr-2017 2:50pm BST
Light rain, Mostly cloudy
Light rain, Mostly cloudy
 Wind from N
Wind: N 16 mph , 26 km/h
Temperature: 11°C
Dew Point: 6°C
Humidity: 72%
Barometer: 1015 hPa
Summary: Light rain
Clouds: Mostly cloudy
Visibility: 6 miles , 10 km
Cloud details: Few Clouds 914 m
Partly cloudy 1219 m
Mostly cloudy 1829 m
2017/04/27 13:50 EGXU 271350Z 36014KT 9999 -RA FEW030 SCT040 BKN060 11/06 Q1015 BLU NOSIG
 
EGXW - Waddington Raf, United Kingdom
Distance from station: S 43mi, 70km
Updated: Thu, 27-Apr-2017 2:50pm BST
Light rain, Showers, Overcast
Light rain, Showers, Overcast
 Wind from N
Wind: N 6 mph , 9 km/h
Temperature: 8°C
Wind Chill: 6°C
Dew Point: 6°C
Humidity: 87%
Barometer: 1015 hPa
Summary: Light rain, Showers
Clouds: Overcast
Visibility: 6 miles , 10 km
Cloud details: Partly cloudy 610 m
Partly cloudy 1158 m
Overcast 1829 m
2017/04/27 13:50 EGXW 271350Z 01005KT 9999 -SHRA SCT020 SCT038 OVC060 08/06 Q1015 WHT TEMPO FEW020 BLU
EGXC - Coningsby Raf, United Kingdom
Distance from station: S 49mi, 79km
Updated: Thu, 27-Apr-2017 2:50pm BST
Rain, Mostly cloudy
Rain, Mostly cloudy
 Wind from NNW
Wind: NNW 9 mph , 15 km/h
Temperature: 8°C
Wind Chill: 5°C
Dew Point: 6°C
Humidity: 87%
Barometer: 1016 hPa
Summary: Rain
Clouds: Mostly cloudy
Visibility: 4 miles , 7 km
Cloud details: Few Clouds 305 m
Mostly cloudy 488 m
Mostly cloudy 762 m
2017/04/27 13:50 EGXC 271350Z 34008KT 7000 RA FEW010 BKN016 BKN025 08/06 Q1016 WHT BECMG 9999 NSW BLU
EGXD - Dishforth Raf, United Kingdom
Distance from station: WNW 49mi, 79km
Updated: Mon, 06-Jun-2016 10:50am BST
NOT Current
Clear
Clear
 Wind from SSE
Wind: SSE 5 mph , 7 km/h
Temperature: 18°C
Dew Point: 11°C
Humidity: 64%
Barometer: 1023 hPa
Clouds: Clear
Visibility: 6 miles , 10 km
2016/06/06 09:50 EGXD 060950Z AUTO 16004KT 9999 // NCD 18/11 Q1023
 
EGXZ - Topcliffe Raf, United Kingdom
Distance from station: WNW 50mi, 81km
Updated: Thu, 27-Apr-2017 2:50pm BST
Mostly cloudy
Mostly cloudy
 Wind from N
Wind: N 12 mph , 19 km/h
Temperature: 10°C
Wind Chill: 7°C
Dew Point: 7°C
Humidity: 82%
Barometer: 1015 hPa
Clouds: Mostly cloudy
Visibility: 6 miles , 10 km
Cloud details: Few Clouds 975 m
Mostly cloudy 1402 m
2017/04/27 13:50 EGXZ 271350Z 35010KT 9999 FEW032 BKN046 10/07 Q1015 BLU